Time;durP1;ratioP1;P1;durP2;ratioP2;P2;SDS_P1;SDS_P2;PMS_P1;PMS_P2;Temp;Humidity;BMP_temperature;BMP_pressure;BME280_temperature;BME280_humidity;BME280_pressure;Samples;Min_cycle;Max_cycle;Signal;HPM_P1;HPM_P2
2022/09/29 00:00:37;;;;;;;16.27;15.00;;;12.70;89.30;;;;;;5032838;28;20068;-80
2022/09/29 00:03:03;;;;;;;15.80;14.50;;;12.70;89.60;;;;;;5015539;28;20045;-80
2022/09/29 00:05:30;;;;;;;15.93;14.52;;;12.80;89.00;;;;;;5046605;28;20033;-80
2022/09/29 00:07:56;;;;;;;16.15;14.75;;;12.80;89.00;;;;;;5010504;28;20046;-80
2022/09/29 00:10:22;;;;;;;16.45;15.05;;;12.80;88.70;;;;;;5012757;28;20038;-80
2022/09/29 00:12:49;;;;;;;15.88;14.48;;;12.70;88.80;;;;;;5015198;28;20474;-80
2022/09/29 00:15:15;;;;;;;15.82;14.77;;;12.70;89.30;;;;;;5043061;28;20493;-80
2022/09/29 00:17:41;;;;;;;15.32;14.40;;;12.70;89.10;;;;;;5013572;28;20052;-80
2022/09/29 00:20:08;;;;;;;16.77;14.88;;;12.60;88.90;;;;;;5041300;28;20034;-80
2022/09/29 00:22:34;;;;;;;16.35;14.82;;;12.60;88.70;;;;;;5031519;28;20049;-80
2022/09/29 00:25:00;;;;;;;16.25;14.82;;;12.70;88.80;;;;;;5024797;28;20030;-80
2022/09/29 00:27:26;;;;;;;15.45;14.18;;;12.70;88.60;;;;;;5012706;28;20040;-80
2022/09/29 00:33:03;;;;;;;15.68;14.38;;;12.60;88.50;;;;;;4939397;28;20554;-81
2022/09/29 00:35:29;;;;;;;15.32;14.23;;;12.70;88.30;;;;;;4937185;28;20035;-81
2022/09/29 00:37:55;;;;;;;15.80;14.43;;;12.60;88.00;;;;;;4942178;28;20035;-82
2022/09/29 00:40:21;;;;;;;15.45;14.13;;;12.50;88.30;;;;;;4952872;28;20046;-81
2022/09/29 00:42:47;;;;;;;16.50;15.15;;;12.50;88.60;;;;;;4957110;28;20043;-82
2022/09/29 00:45:18;;;;;;;15.90;14.60;;;12.50;88.50;;;;;;4933988;28;20480;-81
2022/09/29 00:47:46;;;;;;;15.43;14.05;;;12.50;88.50;;;;;;4956252;28;20042;-81
2022/09/29 00:50:17;;;;;;;15.82;14.60;;;12.50;88.70;;;;;;4970089;28;20063;-81
2022/09/29 00:52:45;;;;;;;15.45;14.35;;;12.50;88.60;;;;;;4940017;29;20062;-81
2022/09/29 00:55:27;;;;;;;14.85;13.77;;;12.40;88.70;;;;;;4950116;28;20028;-81
2022/09/29 00:58:06;;;;;;;15.07;13.55;;;12.40;88.60;;;;;;4939730;29;20510;-81
2022/09/29 01:00:32;;;;;;;15.43;14.20;;;12.40;88.70;;;;;;4934197;28;20040;-81
2022/09/29 01:03:19;;;;;;;15.15;13.93;;;12.40;88.80;;;;;;4937866;29;20036;-81
2022/09/29 01:05:50;;;;;;;15.75;14.38;;;12.40;88.80;;;;;;4934300;29;20041;-81
2022/09/29 01:08:33;;;;;;;15.70;14.13;;;12.30;88.80;;;;;;4942075;29;20038;-81
2022/09/29 01:10:59;;;;;;;15.45;14.10;;;12.30;88.60;;;;;;4961504;28;20102;-81
2022/09/29 01:13:25;;;;;;;16.52;15.10;;;12.30;88.80;;;;;;4964389;28;20527;-81
2022/09/29 01:15:51;;;;;;;15.10;14.02;;;12.30;88.50;;;;;;4948936;28;20030;-81
2022/09/29 01:18:17;;;;;;;16.05;14.52;;;12.30;88.50;;;;;;4953431;28;20031;-81
2022/09/29 01:21:22;;;;;;;15.98;14.52;;;12.20;89.10;;;;;;4963248;28;20460;-81
2022/09/29 01:24:09;;;;;;;15.25;13.98;;;12.20;89.10;;;;;;4936506;29;20187;-81
2022/09/29 01:26:41;;;;;;;15.38;14.27;;;12.20;89.10;;;;;;4932907;29;20097;-80
2022/09/29 01:29:10;;;;;;;15.43;14.23;;;12.20;88.70;;;;;;4932145;29;20161;-80
2022/09/29 01:31:39;;;;;;;16.88;15.32;;;12.20;88.90;;;;;;4933206;28;20203;-81
2022/09/29 01:34:35;;;;;;;16.30;14.88;;;12.20;88.90;;;;;;4931541;29;20455;-81
2022/09/29 01:37:10;;;;;;;15.48;14.38;;;12.20;89.00;;;;;;4925432;29;20032;-81
2022/09/29 01:40:01;;;;;;;15.15;13.98;;;12.10;89.00;;;;;;4940417;28;20035;-81
2022/09/29 01:42:38;;;;;;;16.42;14.88;;;12.10;88.90;;;;;;4919332;29;20040;-81
2022/09/29 01:45:07;;;;;;;15.73;14.45;;;12.10;89.00;;;;;;4922765;28;20492;-80
2022/09/29 01:47:36;;;;;;;16.35;15.15;;;12.10;89.50;;;;;;4922422;28;20219;-80
2022/09/29 01:50:10;;;;;;;16.50;14.95;;;12.10;90.20;;;;;;4931931;29;20030;-81
2022/09/29 01:52:44;;;;;;;16.35;15.05;;;12.10;89.40;;;;;;4935900;29;20155;-81
2022/09/29 01:55:12;;;;;;;16.23;15.02;;;12.10;89.70;;;;;;4936629;29;20040;-80
2022/09/29 01:57:51;;;;;;;15.98;14.50;;;12.10;89.50;;;;;;4935454;29;20042;-81
2022/09/29 02:00:18;;;;;;;16.13;14.75;;;12.10;89.90;;;;;;4933654;28;20043;-80
2022/09/29 02:02:51;;;;;;;15.60;14.55;;;12.10;90.00;;;;;;4956593;28;20523;-81
2022/09/29 02:05:37;;;;;;;15.32;14.30;;;12.10;89.90;;;;;;4938907;29;20027;-80
2022/09/29 02:08:13;;;;;;;16.60;15.02;;;12.10;90.00;;;;;;4928408;29;20032;-81
2022/09/29 02:10:51;;;;;;;15.07;13.98;;;12.10;89.60;;;;;;4938625;28;20562;-81
2022/09/29 02:13:17;;;;;;;15.65;14.25;;;12.10;89.40;;;;;;4948205;28;20554;-81
2022/09/29 02:15:45;;;;;;;15.60;14.25;;;12.10;89.30;;;;;;4931216;28;20027;-81
2022/09/29 02:18:31;;;;;;;15.52;14.20;;;12.10;89.30;;;;;;4941779;28;20035;-81
2022/09/29 02:20:57;;;;;;;15.18;14.07;;;12.10;89.50;;;;;;4952450;28;20032;-81
2022/09/29 02:23:23;;;;;;;15.77;14.43;;;12.00;89.40;;;;;;4939568;28;20050;-81
2022/09/29 02:25:50;;;;;;;15.57;14.27;;;12.00;90.00;;;;;;4934748;28;20080;-81
2022/09/29 02:28:16;;;;;;;15.00;13.75;;;12.00;89.90;;;;;;4934912;29;20044;-81
2022/09/29 02:30:42;;;;;;;15.85;14.40;;;12.00;89.70;;;;;;4943785;28;20051;-81
2022/09/29 02:33:19;;;;;;;14.80;13.75;;;12.00;89.50;;;;;;4954702;28;20411;-81
2022/09/29 02:36:15;;;;;;;17.30;14.02;;;12.10;89.50;;;;;;4954945;29;20035;-81
2022/09/29 02:39:00;;;;;;;15.35;14.15;;;12.00;89.80;;;;;;4955614;28;20031;-80
2022/09/29 02:42:04;;;;;;;14.95;13.90;;;12.10;89.70;;;;;;4970523;28;20031;-81
2022/09/29 02:44:56;;;;;;;15.30;13.65;;;12.00;90.00;;;;;;4960562;28;20051;-80
2022/09/29 02:47:50;;;;;;;15.30;14.27;;;12.00;90.00;;;;;;4950575;28;20515;-81
2022/09/29 02:50:40;;;;;;;15.32;14.23;;;11.90;90.10;;;;;;4954918;28;20046;-81
2022/09/29 02:53:36;;;;;;;14.95;13.82;;;11.90;90.10;;;;;;4966324;28;20062;-81
2022/09/29 02:56:31;;;;;;;15.38;14.27;;;11.90;90.10;;;;;;4962851;28;20035;-81
2022/09/29 02:59:05;;;;;;;15.25;13.95;;;11.80;90.30;;;;;;4972177;28;20379;-81
2022/09/29 03:01:32;;;;;;;15.43;14.10;;;11.80;90.20;;;;;;4968597;28;20042;-81
2022/09/29 03:03:58;;;;;;;17.77;13.85;;;11.80;90.30;;;;;;4956868;28;20035;-80
2022/09/29 03:06:24;;;;;;;15.88;14.30;;;11.80;90.20;;;;;;4946528;28;20035;-81
2022/09/29 03:08:50;;;;;;;15.57;14.18;;;11.80;90.20;;;;;;4971995;28;20476;-81
2022/09/29 03:11:16;;;;;;;15.38;14.32;;;11.80;90.20;;;;;;4954337;28;20502;-81
2022/09/29 03:13:43;;;;;;;14.30;12.95;;;11.70;90.30;;;;;;4943912;29;20031;-80
2022/09/29 03:16:09;;;;;;;15.00;13.70;;;11.70;90.30;;;;;;4940769;28;20027;-80
2022/09/29 03:18:35;;;;;;;15.55;14.18;;;11.70;90.20;;;;;;4955933;28;20488;-81
2022/09/29 03:21:02;;;;;;;15.98;14.98;;;11.60;90.40;;;;;;4937734;29;20028;-81
2022/09/29 03:23:28;;;;;;;15.50;14.15;;;11.70;90.40;;;;;;4945701;29;20035;-81
2022/09/29 03:25:54;;;;;;;15.77;14.57;;;11.60;90.50;;;;;;4956443;29;20376;-80
2022/09/29 03:28:20;;;;;;;16.20;14.82;;;11.70;90.50;;;;;;4955964;28;20038;-80
2022/09/29 03:30:46;;;;;;;16.60;15.02;;;11.70;90.30;;;;;;4956133;28;20047;-80
2022/09/29 03:33:12;;;;;;;15.82;14.38;;;11.70;90.30;;;;;;4951369;28;20043;-81
2022/09/29 03:35:38;;;;;;;15.63;14.30;;;11.70;90.50;;;;;;4968036;28;20031;-80
2022/09/29 03:38:04;;;;;;;15.85;14.35;;;11.80;90.40;;;;;;4956452;28;20039;-81
2022/09/29 03:40:30;;;;;;;15.32;14.13;;;11.70;90.40;;;;;;4973453;28;20030;-80
2022/09/29 03:42:56;;;;;;;16.05;14.43;;;11.70;90.30;;;;;;4954547;28;20046;-81
2022/09/29 03:45:22;;;;;;;15.98;14.68;;;11.80;90.30;;;;;;4938022;28;20039;-80
2022/09/29 03:47:49;;;;;;;16.67;15.32;;;11.70;90.40;;;;;;4953907;28;20031;-81
2022/09/29 03:50:15;;;;;;;15.10;13.88;;;11.60;90.70;;;;;;4955048;28;20050;-80
2022/09/29 03:52:41;;;;;;;15.00;14.02;;;11.60;90.70;;;;;;4955135;28;20035;-81
2022/09/29 03:55:07;;;;;;;15.20;13.98;;;11.50;90.70;;;;;;4953985;28;20412;-81
2022/09/29 03:57:33;;;;;;;15.77;14.20;;;11.60;90.70;;;;;;4953504;28;20028;-81
2022/09/29 04:00:00;;;;;;;15.77;14.48;;;11.60;90.70;;;;;;4956306;28;20042;-81
2022/09/29 04:02:26;;;;;;;15.73;14.30;;;11.60;90.60;;;;;;4962004;28;20398;-82
2022/09/29 04:04:52;;;;;;;16.40;15.07;;;11.60;90.70;;;;;;4955544;29;20472;-80
2022/09/29 04:07:18;;;;;;;15.93;14.63;;;11.60;90.70;;;;;;4954423;29;20035;-82
2022/09/29 04:09:44;;;;;;;17.55;14.30;;;11.60;90.70;;;;;;4966504;28;20391;-85
2022/09/29 04:12:10;;;;;;;16.40;15.15;;;11.60;90.80;;;;;;4945252;29;20027;-84
2022/09/29 04:14:36;;;;;;;16.98;15.60;;;11.60;90.80;;;;;;4937135;29;20396;-85
2022/09/29 04:17:02;;;;;;;17.40;15.90;;;11.60;91.00;;;;;;4954016;28;20035;-82
2022/09/29 04:19:28;;;;;;;18.73;17.15;;;11.60;90.80;;;;;;4941478;29;20058;-83
2022/09/29 04:21:54;;;;;;;18.40;16.92;;;11.70;91.00;;;;;;4937224;29;20019;-84
2022/09/29 04:24:20;;;;;;;20.88;19.50;;;11.60;90.90;;;;;;4955240;29;20043;-84
2022/09/29 04:26:46;;;;;;;22.17;20.35;;;11.60;91.30;;;;;;4967515;28;20492;-84
2022/09/29 04:29:13;;;;;;;21.23;19.40;;;11.60;91.10;;;;;;4951017;28;20047;-84
2022/09/29 04:31:39;;;;;;;19.98;18.52;;;11.70;91.00;;;;;;4937616;28;20500;-84
2022/09/29 04:34:05;;;;;;;16.55;15.23;;;11.70;91.10;;;;;;4950930;28;20067;-84
2022/09/29 04:36:31;;;;;;;16.63;15.55;;;11.70;91.20;;;;;;4943077;29;20480;-83
2022/09/29 04:38:57;;;;;;;17.10;16.15;;;11.70;91.10;;;;;;4960325;28;20038;-83
2022/09/29 04:41:23;;;;;;;16.83;15.52;;;11.80;91.50;;;;;;4971114;28;20027;-83
2022/09/29 04:43:49;;;;;;;16.75;15.55;;;11.80;91.10;;;;;;4950685;29;20038;-83
2022/09/29 04:46:15;;;;;;;15.75;14.45;;;11.80;91.10;;;;;;4938229;28;20412;-83
2022/09/29 04:48:42;;;;;;;16.00;14.55;;;11.80;91.00;;;;;;4957577;28;20028;-83
2022/09/29 04:51:09;;;;;;;13.80;12.55;;;11.90;91.00;;;;;;4955094;28;20032;-85
2022/09/29 04:53:36;;;;;;;16.00;13.18;;;11.90;91.00;;;;;;4955221;28;20036;-83
2022/09/29 04:56:06;;;;;;;14.20;13.15;;;11.80;90.90;;;;;;4964930;28;20032;-84
2022/09/29 04:58:33;;;;;;;14.70;13.27;;;11.80;91.10;;;;;;4955086;29;20397;-84
2022/09/29 05:01:07;;;;;;;14.07;12.68;;;11.80;91.00;;;;;;4963104;28;20041;-84
2022/09/29 05:03:33;;;;;;;14.15;13.05;;;11.80;91.00;;;;;;4947694;28;20380;-83
2022/09/29 05:05:59;;;;;;;13.70;12.60;;;11.90;90.80;;;;;;4949566;29;20050;-81
2022/09/29 05:08:25;;;;;;;13.98;12.73;;;11.90;90.80;;;;;;4947752;28;20038;-80
2022/09/29 05:10:51;;;;;;;13.85;12.60;;;11.70;91.00;;;;;;4950862;28;20043;-81
2022/09/29 05:13:17;;;;;;;13.98;12.82;;;11.70;91.00;;;;;;4954183;28;20050;-81
2022/09/29 05:15:43;;;;;;;16.35;13.50;;;11.70;92.00;;;;;;4963865;28;20032;-81
2022/09/29 05:18:09;;;;;;;13.75;12.55;;;11.70;91.10;;;;;;4935566;29;20047;-81
2022/09/29 05:20:35;;;;;;;14.82;12.82;;;11.70;91.00;;;;;;4935590;29;20031;-80
2022/09/29 05:23:01;;;;;;;14.38;13.15;;;11.70;90.90;;;;;;4935235;29;20040;-80
2022/09/29 05:25:28;;;;;;;14.20;12.77;;;11.70;91.40;;;;;;4935660;29;20097;-80
2022/09/29 05:27:54;;;;;;;13.77;12.73;;;11.70;90.80;;;;;;4946380;29;20043;-81
2022/09/29 05:30:20;;;;;;;14.15;12.95;;;11.70;90.90;;;;;;4954123;28;20031;-81
2022/09/29 05:32:46;;;;;;;13.95;12.80;;;11.70;90.90;;;;;;4952915;29;20051;-81
2022/09/29 05:35:13;;;;;;;13.65;12.55;;;11.70;90.70;;;;;;4953709;29;20043;-81
2022/09/29 05:37:39;;;;;;;15.00;13.52;;;11.70;90.70;;;;;;4967417;28;20035;-81
2022/09/29 05:40:07;;;;;;;14.02;12.70;;;11.70;90.50;;;;;;4980695;28;20038;-81
2022/09/29 05:42:33;;;;;;;14.32;13.07;;;11.70;90.50;;;;;;4953921;28;20036;-81
2022/09/29 05:45:00;;;;;;;14.63;13.18;;;11.70;90.40;;;;;;4954536;28;20380;-80
2022/09/29 05:47:26;;;;;;;14.23;13.20;;;11.60;90.50;;;;;;4953657;28;20039;-80
2022/09/29 05:49:52;;;;;;;14.52;13.20;;;11.60;90.50;;;;;;4954048;28;20031;-81
2022/09/29 05:52:18;;;;;;;14.82;13.23;;;11.60;90.40;;;;;;4969057;28;20035;-80
2022/09/29 05:54:44;;;;;;;17.40;13.63;;;11.60;90.30;;;;;;4954224;28;20039;-81
2022/09/29 05:57:11;;;;;;;14.55;13.45;;;11.60;90.30;;;;;;4966871;28;20047;-80
2022/09/29 05:59:37;;;;;;;15.43;13.93;;;11.60;90.30;;;;;;4953619;28;20039;-81
2022/09/29 06:02:03;;;;;;;15.10;13.90;;;11.60;90.40;;;;;;4949924;28;20388;-81
2022/09/29 06:04:29;;;;;;;15.52;14.07;;;11.60;90.30;;;;;;4952102;28;20057;-79
2022/09/29 06:06:56;;;;;;;14.77;13.70;;;11.60;90.30;;;;;;4954247;28;20031;-79
2022/09/29 06:09:22;;;;;;;15.60;14.10;;;11.60;90.30;;;;;;4952418;28;20480;-79
2022/09/29 06:11:48;;;;;;;14.65;13.65;;;11.60;90.30;;;;;;4952998;29;20038;-80
2022/09/29 06:14:14;;;;;;;15.93;14.52;;;11.60;90.30;;;;;;4938742;29;20040;-80
2022/09/29 06:16:40;;;;;;;16.58;14.80;;;11.60;90.30;;;;;;4946966;28;20445;-78
2022/09/29 06:19:06;;;;;;;14.68;13.48;;;11.60;90.40;;;;;;4952643;29;20046;-80
2022/09/29 06:21:34;;;;;;;15.55;14.15;;;11.60;90.20;;;;;;4968968;28;20039;-80
2022/09/29 06:24:00;;;;;;;15.73;14.38;;;11.60;90.80;;;;;;4939695;28;20031;-79
2022/09/29 06:26:26;;;;;;;15.25;13.95;;;11.60;90.40;;;;;;4949237;28;20484;-80
2022/09/29 06:28:53;;;;;;;16.27;14.35;;;11.60;90.40;;;;;;4936735;29;20046;-80
2022/09/29 06:31:20;;;;;;;15.70;14.35;;;11.60;90.40;;;;;;4950274;28;20058;-80
2022/09/29 06:33:46;;;;;;;16.55;14.82;;;11.60;90.60;;;;;;4968311;28;20043;-80
2022/09/29 06:39:02;;;;;;;16.63;14.50;;;11.60;90.80;;;;;;4973270;28;20518;-79
2022/09/29 06:41:28;;;;;;;19.10;17.40;;;11.70;90.70;;;;;;4939182;29;20035;-79
2022/09/29 06:43:55;;;;;;;16.33;14.73;;;11.70;91.00;;;;;;4953415;28;20388;-78
2022/09/29 06:46:21;;;;;;;18.83;17.30;;;11.70;90.90;;;;;;4968376;28;20035;-79
2022/09/29 06:48:47;;;;;;;15.18;13.80;;;11.70;91.40;;;;;;4942635;28;20040;-79
2022/09/29 06:51:13;;;;;;;15.43;13.80;;;11.70;91.20;;;;;;4944973;29;20184;-80
2022/09/29 06:53:40;;;;;;;14.52;13.52;;;11.80;91.30;;;;;;4957574;28;20047;-78
2022/09/29 06:56:07;;;;;;;14.63;13.43;;;11.90;91.00;;;;;;4945751;28;20051;-78
2022/09/29 06:58:34;;;;;;;15.35;13.60;;;11.90;91.00;;;;;;4959629;28;20268;-77
2022/09/29 07:01:00;;;;;;;15.05;14.05;;;11.80;91.00;;;;;;4938698;28;20543;-78
2022/09/29 07:03:27;;;;;;;14.60;13.15;;;11.90;91.10;;;;;;4938402;29;20027;-78
2022/09/29 07:05:53;;;;;;;14.43;13.43;;;12.00;91.00;;;;;;4943538;29;20047;-80
2022/09/29 07:08:20;;;;;;;15.10;13.15;;;12.00;90.90;;;;;;4943526;29;20043;-79
2022/09/29 07:10:47;;;;;;;15.52;14.00;;;12.10;90.80;;;;;;4944483;29;20047;-79
2022/09/29 07:13:13;;;;;;;15.70;13.48;;;12.10;90.80;;;;;;4961852;28;20259;-79
2022/09/29 07:15:39;;;;;;;15.57;14.20;;;12.10;91.00;;;;;;4939902;28;20043;-79
2022/09/29 07:18:05;;;;;;;14.10;13.10;;;12.10;90.90;;;;;;4945009;29;20038;-79
2022/09/29 07:20:31;;;;;;;14.52;13.23;;;12.10;90.90;;;;;;4947434;28;20400;-80
2022/09/29 07:22:57;;;;;;;15.88;14.57;;;12.10;91.00;;;;;;4944928;28;20035;-79
2022/09/29 07:25:23;;;;;;;15.30;14.18;;;12.20;90.90;;;;;;4962157;28;20443;-78
2022/09/29 07:27:50;;;;;;;16.15;14.45;;;12.10;91.00;;;;;;4945772;29;20043;-79
2022/09/29 07:30:17;;;;;;;15.68;14.45;;;12.20;91.10;;;;;;4945720;28;20043;-79
2022/09/29 07:32:43;;;;;;;16.30;15.00;;;12.30;90.90;;;;;;4926784;29;20048;-87
2022/09/29 07:35:09;;;;;;;16.15;14.90;;;12.30;90.60;;;;;;4947745;28;20056;-79
2022/09/29 07:37:35;;;;;;;15.63;14.23;;;12.30;90.70;;;;;;4944280;28;20042;-83
2022/09/29 07:40:01;;;;;;;17.00;15.55;;;12.30;90.80;;;;;;4947957;28;20507;-82
2022/09/29 07:42:30;;;;;;;16.83;15.38;;;12.30;90.80;;;;;;4943377;28;20038;-82
2022/09/29 07:44:57;;;;;;;17.25;16.00;;;12.30;90.70;;;;;;4950635;28;20130;-80
2022/09/29 07:47:23;;;;;;;21.38;19.85;;;12.40;90.90;;;;;;4949236;28;20464;-80
2022/09/29 07:49:49;;;;;;;19.48;17.88;;;12.40;91.10;;;;;;4943242;29;20039;-76
2022/09/29 07:52:15;;;;;;;23.15;21.30;;;12.60;91.60;;;;;;4948359;29;20032;-79
2022/09/29 07:54:41;;;;;;;21.92;20.58;;;12.80;90.90;;;;;;4967068;28;20058;-82
2022/09/29 07:57:07;;;;;;;19.40;18.20;;;12.90;90.50;;;;;;4971138;28;20027;-82
2022/09/29 07:59:33;;;;;;;21.98;20.40;;;12.90;90.20;;;;;;4969446;28;20031;-88
2022/09/29 08:02:01;;;;;;;22.40;20.10;;;12.90;90.30;;;;;;4923080;29;20042;-84
2022/09/29 08:04:27;;;;;;;21.70;20.00;;;13.10;90.60;;;;;;4953050;28;20039;-85
2022/09/29 08:06:53;;;;;;;23.67;21.77;;;13.20;90.30;;;;;;4935861;29;20047;-85
2022/09/29 08:09:19;;;;;;;20.60;19.00;;;13.40;91.00;;;;;;4951069;28;20473;-85
2022/09/29 08:11:45;;;;;;;20.50;18.95;;;13.60;90.10;;;;;;4966925;28;20039;-83
2022/09/29 08:14:11;;;;;;;20.73;19.52;;;13.90;88.50;;;;;;4952772;28;20325;-84
2022/09/29 08:16:38;;;;;;;23.33;21.45;;;14.20;89.30;;;;;;4954566;28;20035;-88
2022/09/29 08:19:04;;;;;;;23.58;21.55;;;14.50;87.80;;;;;;4968244;28;20043;-90
2022/09/29 08:21:35;;;;;;;24.20;22.52;;;14.80;88.30;;;;;;4947711;28;20067;-88
2022/09/29 08:24:03;;;;;;;24.15;22.77;;;15.10;87.50;;;;;;4974456;28;20051;-85
2022/09/29 08:26:31;;;;;;;24.88;23.38;;;15.30;85.50;;;;;;4952578;28;20055;-91
2022/09/29 08:28:57;;;;;;;24.15;22.52;;;15.50;84.80;;;;;;4924496;29;20055;-91
2022/09/29 08:31:23;;;;;;;28.48;26.48;;;15.60;83.80;;;;;;4942979;28;20050;-91
2022/09/29 08:33:50;;;;;;;25.38;23.52;;;15.50;83.10;;;;;;4957299;28;20035;-92
2022/09/29 08:36:19;;;;;;;25.55;23.92;;;15.40;83.30;;;;;;4930039;29;20043;-91
2022/09/29 08:38:52;;;;;;;25.67;23.90;;;15.30;83.00;;;;;;4971596;28;20046;-92
2022/09/29 08:41:47;;;;;;;23.73;22.13;;;15.30;83.40;;;;;;4966545;28;20043;-90
2022/09/29 08:44:18;;;;;;;25.05;23.25;;;15.20;82.80;;;;;;4943466;28;20042;-89
2022/09/29 08:46:44;;;;;;;;;;;15.20;83.00;;;;;;4954737;28;20031;-90
2022/09/29 08:49:15;;;;;;;21.70;20.30;;;15.10;83.00;;;;;;4957694;28;19929;-91
2022/09/29 08:51:45;;;;;;;21.27;19.75;;;15.20;83.20;;;;;;4933308;29;20039;-90
2022/09/29 08:54:32;;;;;;;24.03;22.53;;;15.10;83.60;;;;;;4944747;28;20148;-90
2022/09/29 08:56:59;;;;;;;23.45;21.88;;;15.00;83.20;;;;;;4940545;28;20044;-90
2022/09/29 08:59:27;;;;;;;23.90;22.20;;;15.00;83.80;;;;;;4954936;28;20068;-90
2022/09/29 09:02:18;;;;;;;25.83;23.83;;;14.90;84.00;;;;;;4951500;28;20037;-90
2022/09/29 09:04:59;;;;;;;24.35;22.52;;;15.00;84.20;;;;;;4932935;28;20042;-90
2022/09/29 09:07:38;;;;;;;;;;;15.00;84.00;;;;;;4945702;28;20039;-90
2022/09/29 09:10:18;;;;;;;24.40;22.73;;;15.10;84.10;;;;;;4952344;28;19918;-91
2022/09/29 09:12:56;;;;;;;23.77;22.17;;;15.10;84.30;;;;;;4948162;28;20049;-90
2022/09/29 09:15:47;;;;;;;25.40;23.27;;;15.10;84.70;;;;;;4951129;28;20051;-90
2022/09/29 09:18:29;;;;;;;26.60;24.83;;;15.10;84.40;;;;;;4938830;28;20043;-87
2022/09/29 09:20:59;;;;;;;24.25;22.85;;;15.10;85.00;;;;;;4948836;28;20035;-89
2022/09/29 09:23:41;;;;;;;27.70;25.75;;;15.20;84.30;;;;;;4933857;29;20043;-88
2022/09/29 09:26:07;;;;;;;26.67;24.42;;;15.20;84.90;;;;;;4950891;28;20059;-89
2022/09/29 09:28:38;;;;;;;27.55;25.95;;;15.20;83.70;;;;;;4953103;28;20043;-87
2022/09/29 09:31:19;;;;;;;24.75;23.35;;;15.10;84.50;;;;;;4933468;28;20484;-88
2022/09/29 09:33:57;;;;;;;27.75;25.65;;;15.10;83.90;;;;;;4949035;28;20043;-87
2022/09/29 09:36:36;;;;;;;27.17;25.77;;;15.00;84.00;;;;;;4937069;28;20135;-88
2022/09/29 09:39:10;;;;;;;27.73;26.13;;;15.10;84.60;;;;;;4938340;29;20034;-93
2022/09/29 09:41:36;;;;;;;24.67;22.80;;;15.10;84.70;;;;;;4936210;29;20056;-82
2022/09/29 09:44:08;;;;;;;26.38;24.83;;;15.20;83.60;;;;;;4966638;28;20396;-83
2022/09/29 09:46:38;;;;;;;29.00;27.00;;;15.00;83.50;;;;;;4936977;28;20519;-84
2022/09/29 09:49:21;;;;;;;26.53;25.03;;;15.10;84.10;;;;;;4949548;28;20052;-83
2022/09/29 09:52:20;;;;;;;26.30;24.65;;;15.00;83.70;;;;;;4951620;28;20039;-87
2022/09/29 09:54:49;;;;;;;25.98;24.20;;;15.00;84.00;;;;;;4924408;29;20055;-85
2022/09/29 09:57:47;;;;;;;28.10;26.60;;;15.10;83.90;;;;;;4913789;29;20027;-81
2022/09/29 10:00:24;;;;;;;24.50;22.88;;;15.00;84.00;;;;;;4900819;29;20389;-80
2022/09/29 10:02:54;;;;;;;27.95;26.27;;;15.10;84.80;;;;;;4915519;29;20050;-80
2022/09/29 10:05:25;;;;;;;26.20;24.20;;;15.20;84.80;;;;;;4911239;29;20051;-82
2022/09/29 10:07:52;;;;;;;26.48;24.70;;;15.40;84.30;;;;;;4912044;29;20416;-79
2022/09/29 10:10:27;;;;;;;26.83;25.23;;;15.40;84.00;;;;;;4916292;29;20047;-80
2022/09/29 10:13:09;;;;;;;26.52;24.88;;;15.50;84.00;;;;;;4930269;29;20274;-81
2022/09/29 10:15:59;;;;;;;27.25;25.52;;;15.70;83.70;;;;;;4912921;29;20051;-79
2022/09/29 10:18:29;;;;;;;25.90;24.20;;;15.80;82.70;;;;;;4923369;29;20043;-80
2022/09/29 10:20:55;;;;;;;29.75;27.95;;;16.00;83.40;;;;;;4916808;29;20473;-81
2022/09/29 10:23:33;;;;;;;27.23;25.40;;;16.10;81.90;;;;;;4932947;29;20032;-80
2022/09/29 10:26:00;;;;;;;33.58;31.38;;;16.20;82.80;;;;;;4914748;29;20408;-81
2022/09/29 10:28:30;;;;;;;36.33;34.15;;;16.40;82.00;;;;;;4914257;29;20028;-80
2022/09/29 10:30:56;;;;;;;33.17;31.30;;;16.60;80.60;;;;;;4908230;29;20051;-80
2022/09/29 10:33:22;;;;;;;36.20;34.17;;;16.50;78.80;;;;;;4951299;29;20043;-80
2022/09/29 10:35:51;;;;;;;34.90;32.85;;;16.70;80.60;;;;;;4934759;29;20058;-83
2022/09/29 10:38:24;;;;;;;28.13;26.52;;;16.80;80.60;;;;;;4950395;28;20035;-79
2022/09/29 10:40:56;;;;;;;30.58;28.90;;;16.80;77.10;;;;;;4947542;28;20028;-79
2022/09/29 10:43:37;;;;;;;28.05;26.20;;;16.70;76.10;;;;;;4951923;28;20038;-80
2022/09/29 10:46:03;;;;;;;27.88;25.70;;;16.60;76.30;;;;;;4955338;28;20039;-80
2022/09/29 10:48:30;;;;;;;27.10;25.45;;;16.50;77.80;;;;;;4955449;28;20042;-79
2022/09/29 10:51:03;;;;;;;29.58;27.77;;;16.60;77.40;;;;;;4937992;29;20051;-79
2022/09/29 10:53:39;;;;;;;33.97;31.85;;;16.70;77.70;;;;;;4938999;29;20385;-79
2022/09/29 10:56:21;;;;;;;31.30;29.70;;;16.90;75.50;;;;;;4947305;29;20050;-81
2022/09/29 10:58:54;;;;;;;32.42;30.30;;;17.00;76.90;;;;;;4962140;28;20023;-80
2022/09/29 11:01:20;;;;;;;31.75;30.05;;;17.10;75.90;;;;;;4955442;28;20050;-80
2022/09/29 11:04:06;;;;;;;34.85;32.95;;;17.10;75.80;;;;;;4954988;29;20042;-79
2022/09/29 11:06:36;;;;;;;26.92;25.42;;;17.20;75.80;;;;;;4948310;28;20042;-79
2022/09/29 11:09:24;;;;;;;27.45;25.85;;;17.20;72.80;;;;;;4951890;29;20038;-79
2022/09/29 11:11:54;;;;;;;28.63;26.58;;;17.10;73.50;;;;;;4961249;28;20023;-79
2022/09/29 11:14:36;;;;;;;30.20;28.35;;;17.10;73.70;;;;;;4958476;28;20047;-80
2022/09/29 11:17:20;;;;;;;31.45;29.63;;;17.00;74.50;;;;;;4947768;28;20046;-80
2022/09/29 11:19:46;;;;;;;30.15;28.55;;;17.00;74.30;;;;;;4954923;28;20024;-79
2022/09/29 11:22:33;;;;;;;30.08;28.25;;;17.10;75.50;;;;;;4955198;28;20038;-79
2022/09/29 11:25:21;;;;;;;33.22;31.33;;;17.00;74.20;;;;;;4955715;28;20050;-80
2022/09/29 11:27:59;;;;;;;31.55;29.75;;;17.10;74.80;;;;;;4941450;29;20039;-79
2022/09/29 11:30:31;;;;;;;27.73;26.10;;;17.10;74.00;;;;;;4940318;28;20036;-79
2022/09/29 11:33:17;;;;;;;34.47;32.58;;;17.20;73.70;;;;;;4953055;29;20055;-80
2022/09/29 11:35:52;;;;;;;44.58;42.28;;;17.40;71.70;;;;;;4971100;28;20039;-79
2022/09/29 11:38:26;;;;;;;40.22;37.90;;;17.50;69.80;;;;;;4966257;28;20042;-80
2022/09/29 11:41:07;;;;;;;29.27;27.70;;;17.40;69.00;;;;;;4971646;28;20042;-80
2022/09/29 11:43:55;;;;;;;39.30;37.30;;;17.60;71.20;;;;;;4954018;28;20388;-81
2022/09/29 11:46:55;;;;;;;57.70;54.75;;;17.80;70.80;;;;;;4969343;28;20043;-80
2022/09/29 11:49:37;;;;;;;53.83;50.95;;;17.90;68.00;;;;;;4966324;28;20543;-80
2022/09/29 11:52:28;;;;;;;50.17;47.53;;;18.10;68.50;;;;;;4951615;29;20028;-80
2022/09/29 11:55:15;;;;;;;51.83;49.15;;;18.20;69.30;;;;;;4949430;28;20044;-80
2022/09/29 11:58:10;;;;;;;44.25;41.80;;;18.20;67.70;;;;;;4954374;28;20046;-80
2022/09/29 12:00:41;;;;;;;45.42;42.95;;;18.40;67.60;;;;;;4964121;28;20420;-80
2022/09/29 12:03:31;;;;;;;55.13;52.35;;;18.40;67.00;;;;;;4954620;28;20036;-80
2022/09/29 12:06:33;;;;;;;46.90;44.33;;;18.30;66.40;;;;;;4954912;29;20023;-80
2022/09/29 12:09:14;;;;;;;40.25;38.17;;;18.30;65.70;;;;;;4956356;28;20031;-80
2022/09/29 12:12:28;;;;;;;39.40;36.85;;;18.30;64.40;;;;;;4934395;28;20039;-80
2022/09/29 12:14:57;;;;;;;35.60;33.72;;;18.40;64.10;;;;;;4949430;28;20062;-80
2022/09/29 12:17:24;;;;;;;38.70;36.45;;;18.50;64.90;;;;;;4954369;28;20035;-80
2022/09/29 12:19:58;;;;;;;37.78;35.97;;;18.70;64.60;;;;;;4955360;29;20167;-80
2022/09/29 12:22:24;;;;;;;32.72;31.05;;;18.70;63.50;;;;;;4952541;28;20498;-81
2022/09/29 12:24:53;;;;;;;30.40;28.75;;;18.70;62.40;;;;;;4953815;29;20485;-81
2022/09/29 12:27:38;;;;;;;33.60;31.65;;;18.80;62.70;;;;;;4969889;28;20020;-80
2022/09/29 12:30:14;;;;;;;35.45;33.65;;;18.90;62.20;;;;;;4938395;28;20036;-81
2022/09/29 12:33:00;;;;;;;37.38;35.47;;;19.00;62.50;;;;;;4939912;29;20047;-81
2022/09/29 12:35:31;;;;;;;28.30;26.60;;;18.90;60.90;;;;;;4967636;28;20036;-80
2022/09/29 12:38:34;;;;;;;32.08;30.48;;;18.80;59.50;;;;;;4969335;28;20498;-80
2022/09/29 12:41:14;;;;;;;30.13;28.42;;;18.80;61.20;;;;;;4879894;29;20382;-79
2022/09/29 12:43:42;;;;;;;30.80;29.08;;;18.60;58.30;;;;;;4895931;29;20048;-79
2022/09/29 12:46:29;;;;;;;29.30;27.58;;;18.50;58.20;;;;;;4861090;29;20044;-79
2022/09/29 12:49:07;;;;;;;26.67;25.17;;;18.40;58.90;;;;;;4895930;29;20039;-80
2022/09/29 12:51:40;;;;;;;27.48;25.70;;;18.10;58.70;;;;;;4895380;29;20181;-79
2022/09/29 12:54:27;;;;;;;24.67;23.23;;;18.00;59.80;;;;;;4895706;29;20430;-79
2022/09/29 12:57:10;;;;;;;22.67;21.45;;;17.60;61.80;;;;;;4894817;29;20036;-79